Time;durP1;ratioP1;P1;durP2;ratioP2;P2;SDS_P1;SDS_P2;PMS_P1;PMS_P2;Temp;Humidity;BMP_temperature;BMP_pressure;BME280_temperature;BME280_humidity;BME280_pressure;Samples;Min_cycle;Max_cycle;Signal;HPM_P1;HPM_P2
2022/06/23 00:01:17;;;;;;;16.08;9.88;;;;;;;16.41;100.00;-25529.03;5092125;28;20032;-77
2022/06/23 00:03:44;;;;;;;16.77;10.45;;;;;;;16.37;100.00;-25527.88;5075147;28;20064;-76
2022/06/23 00:06:35;;;;;;;19.15;10.57;;;;;;;16.32;100.00;-25526.44;5091969;28;20023;-76
2022/06/23 00:09:00;;;;;;;;;;;;;;;16.32;100.00;-25526.44;5091526;28;20028;-76
2022/06/23 00:11:28;;;;;;;13.80;9.60;;;;;;;16.27;100.00;-25525.13;5073667;28;19970;-77
2022/06/23 00:14:11;;;;;;;16.35;10.20;;;;;;;16.24;100.00;-25524.13;5090477;28;20125;-76
2022/06/23 00:16:37;;;;;;;17.83;9.63;;;;;;;16.24;100.00;-25524.13;5090675;28;20028;-77
2022/06/23 00:19:02;;;;;;;15.65;10.38;;;;;;;16.19;100.00;-25522.66;5090227;28;20119;-77
2022/06/23 00:21:32;;;;;;;15.40;10.13;;;;;;;16.16;100.00;-25521.94;5092459;28;20594;-77
2022/06/23 00:24:03;;;;;;;14.63;10.23;;;;;;;16.14;100.00;-25521.50;5093561;28;20032;-79
2022/06/23 00:26:33;;;;;;;19.20;10.07;;;;;;;16.09;100.00;-25520.03;5092188;28;20047;-78
2022/06/23 00:29:13;;;;;;;16.38;9.45;;;;;;;16.05;100.00;-25518.88;5094357;28;20127;-81
2022/06/23 00:32:04;;;;;;;15.30;10.43;;;;;;;16.03;100.00;-25518.16;5090143;28;20024;-79
2022/06/23 00:34:40;;;;;;;;;;;;;;;15.97;100.00;-25516.56;5092159;28;20020;-76
2022/06/23 00:37:14;;;;;;;15.98;10.07;;;;;;;15.92;100.00;-25515.25;5093549;28;19916;-79
2022/06/23 00:39:41;;;;;;;21.10;11.57;;;;;;;15.96;100.00;-25516.41;5091287;28;20081;-77
2022/06/23 00:42:18;;;;;;;14.52;9.85;;;;;;;15.94;100.00;-25515.69;5093315;28;20064;-79
2022/06/23 00:44:54;;;;;;;16.98;9.68;;;;;;;15.95;100.00;-25515.97;5093496;28;20039;-77
2022/06/23 00:47:27;;;;;;;13.45;9.70;;;;;;;15.88;100.00;-25513.94;5091761;28;20529;-76
2022/06/23 00:50:00;;;;;;;14.77;10.07;;;;;;;15.85;100.00;-25513.06;5092471;28;20031;-80
2022/06/23 00:52:37;;;;;;;19.98;10.38;;;;;;;15.83;100.00;-25512.50;5092051;28;20024;-78
2022/06/23 00:55:24;;;;;;;16.33;10.13;;;;;;;15.80;100.00;-25511.75;5091358;28;20028;-79
2022/06/23 00:57:56;;;;;;;19.75;10.20;;;;;;;15.75;100.00;-25510.44;5091830;28;20032;-76
2022/06/23 01:00:35;;;;;;;14.80;9.82;;;;;;;15.71;100.00;-25509.13;5092042;28;20028;-78
2022/06/23 01:03:25;;;;;;;16.30;9.85;;;;;;;15.68;100.00;-25508.41;5090787;28;20028;-77
2022/06/23 01:06:07;;;;;;;16.42;10.90;;;;;;;15.67;100.00;-25507.97;5092389;28;20046;-80
2022/06/23 01:08:49;;;;;;;15.35;9.82;;;;;;;15.62;100.00;-25506.81;5090448;28;20340;-80
2022/06/23 01:11:26;;;;;;;14.88;10.23;;;;;;;15.62;100.00;-25506.81;5092048;28;20032;-77
2022/06/23 01:14:08;;;;;;;13.98;9.75;;;;;;;15.61;100.00;-25506.38;5090931;28;20013;-77
2022/06/23 01:16:42;;;;;;;14.93;9.80;;;;;;;15.57;100.00;-25505.34;5091612;28;20031;-80
2022/06/23 01:19:31;;;;;;;15.45;10.68;;;;;;;15.54;100.00;-25504.50;5092136;28;20602;-80
2022/06/23 01:22:00;;;;;;;16.23;10.45;;;;;;;15.53;100.00;-25504.19;5091033;28;20114;-78
2022/06/23 01:24:29;;;;;;;16.25;10.73;;;;;;;15.53;100.00;-25504.06;5091119;28;20016;-80
2022/06/23 01:27:16;;;;;;;16.25;10.73;;;;;;;15.53;100.00;-25504.06;5091383;28;20055;-76
2022/06/23 01:29:51;;;;;;;16.73;9.88;;;;;;;15.52;100.00;-25503.75;5088647;28;20036;-76
2022/06/23 01:32:39;;;;;;;16.33;10.18;;;;;;;15.50;100.00;-25503.31;5090103;28;20528;-76
2022/06/23 01:35:31;;;;;;;12.95;9.25;;;;;;;15.47;100.00;-25502.44;5089325;28;20020;-77
2022/06/23 01:38:09;;;;;;;14.10;10.48;;;;;;;15.46;100.00;-25502.00;5084920;28;20036;-76
2022/06/23 01:40:45;;;;;;;14.35;9.63;;;;;;;15.41;100.00;-25500.84;5073893;28;20036;-76
2022/06/23 01:43:17;;;;;;;15.75;9.57;;;;;;;15.40;100.00;-25500.41;5088988;28;20026;-77
2022/06/23 01:45:54;;;;;;;13.63;9.57;;;;;;;15.36;100.00;-25499.41;5089030;28;20052;-76
2022/06/23 01:51:35;;;;;;;15.75;10.13;;;;;;;15.30;100.00;-25497.66;5090154;28;20031;-76
2022/06/23 01:54:14;;;;;;;18.02;10.20;;;;;;;15.29;100.00;-25497.34;5068808;28;20048;-77
2022/06/23 01:57:01;;;;;;;18.00;10.88;;;;;;;15.26;100.00;-25496.50;5089317;28;20582;-79
2022/06/23 01:59:48;;;;;;;14.77;10.02;;;;;;;15.24;100.00;-25495.91;5089892;28;20024;-78
2022/06/23 02:02:16;;;;;;;13.40;9.50;;;;;;;15.23;100.00;-25495.75;5092115;28;20367;-78
2022/06/23 02:05:11;;;;;;;17.98;9.80;;;;;;;15.19;100.00;-25494.44;5089063;28;20173;-78
2022/06/23 02:07:46;;;;;;;20.13;10.75;;;;;;;15.16;100.00;-25493.72;5089391;28;20416;-76
2022/06/23 02:10:21;;;;;;;16.15;10.32;;;;;;;15.21;100.00;-25495.19;5089124;28;20025;-76
2022/06/23 02:12:59;;;;;;;16.25;9.98;;;;;;;15.16;100.00;-25493.56;5088620;28;20044;-77
2022/06/23 02:15:34;;;;;;;16.55;10.95;;;;;;;15.16;100.00;-25493.56;5084751;28;20077;-75
2022/06/23 02:18:21;;;;;;;14.75;10.40;;;;;;;15.11;100.00;-25492.13;5089172;28;20039;-77
2022/06/23 02:20:57;;;;;;;15.57;10.15;;;;;;;15.10;100.00;-25491.81;5088821;28;20071;-77
2022/06/23 02:23:31;;;;;;;14.18;9.75;;;;;;;15.06;100.00;-25490.97;5089621;28;20077;-76
2022/06/23 02:26:03;;;;;;;15.10;9.77;;;;;;;15.06;100.00;-25490.97;5088396;28;20048;-76
2022/06/23 02:28:48;;;;;;;14.98;9.68;;;;;;;15.07;100.00;-25491.09;5089501;28;20423;-76
2022/06/23 02:31:24;;;;;;;17.05;10.18;;;;;;;15.07;100.00;-25491.09;5089422;28;20115;-77
2022/06/23 02:34:06;;;;;;;15.60;10.07;;;;;;;15.01;100.00;-25489.50;5088622;28;20051;-76
2022/06/23 02:36:41;;;;;;;16.23;9.63;;;;;;;15.02;100.00;-25489.78;5089047;28;20399;-77
2022/06/23 02:39:17;;;;;;;16.35;9.18;;;;;;;15.01;100.00;-25489.34;5088854;28;20017;-77
2022/06/23 02:41:52;;;;;;;17.48;9.65;;;;;;;14.99;100.00;-25488.91;5089266;28;20038;-77
2022/06/23 02:44:44;;;;;;;13.05;9.85;;;;;;;14.95;100.00;-25487.59;5089757;28;20016;-77
2022/06/23 02:47:28;;;;;;;17.15;9.75;;;;;;;14.89;100.00;-25486.16;5089408;28;20034;-77
2022/06/23 02:50:13;;;;;;;16.55;10.25;;;;;;;14.83;100.00;-25484.41;5090831;28;20046;-76
2022/06/23 02:52:54;;;;;;;15.77;10.20;;;;;;;14.83;100.00;-25484.25;5088983;28;20056;-76
2022/06/23 02:55:41;;;;;;;15.82;10.13;;;;;;;14.82;100.00;-25484.13;5090621;28;20081;-78
2022/06/23 02:58:21;;;;;;;13.77;9.63;;;;;;;14.82;100.00;-25484.13;5093636;28;20614;-81
2022/06/23 03:01:04;;;;;;;15.95;10.05;;;;;;;14.75;100.00;-25481.94;5092863;28;20115;-76
2022/06/23 03:03:59;;;;;;;17.20;10.80;;;;;;;14.74;100.00;-25481.63;5093910;28;20476;-77
2022/06/23 03:06:51;;;;;;;15.90;10.23;;;;;;;14.74;100.00;-25481.78;5093867;28;20071;-77
2022/06/23 03:09:30;;;;;;;14.32;9.75;;;;;;;14.75;100.00;-25481.94;5094317;28;20020;-77
2022/06/23 03:12:09;;;;;;;20.45;10.50;;;;;;;14.74;100.00;-25481.63;5093584;28;20128;-77
2022/06/23 03:15:03;;;;;;;18.55;10.80;;;;;;;14.79;100.00;-25483.09;5092898;28;20033;-79
2022/06/23 03:17:44;;;;;;;17.25;10.35;;;;;;;14.74;100.00;-25481.63;5094339;28;20082;-78
2022/06/23 03:20:18;;;;;;;15.68;10.10;;;;;;;14.69;100.00;-25480.47;5094985;28;20028;-80
2022/06/23 03:22:51;;;;;;;16.45;10.05;;;;;;;14.69;100.00;-25480.47;5087415;28;20557;-77
2022/06/23 03:25:46;;;;;;;15.27;10.25;;;;;;;14.66;100.00;-25479.59;5093644;28;20056;-76
2022/06/23 03:28:26;;;;;;;14.65;10.63;;;;;;;14.67;100.00;-25479.75;5087881;28;20028;-77
2022/06/23 03:31:00;;;;;;;16.98;10.48;;;;;;;14.72;100.00;-25481.34;5092765;28;20508;-80
2022/06/23 03:33:43;;;;;;;15.32;9.70;;;;;;;14.73;100.00;-25481.50;5094214;28;20024;-78
2022/06/23 03:36:47;;;;;;;16.65;10.40;;;;;;;14.76;100.00;-25482.38;5091920;28;20028;-78
2022/06/23 03:42:23;;;;;;;13.85;9.95;;;;;;;14.75;100.00;-25482.06;5093673;28;20593;-80
2022/06/23 03:44:53;;;;;;;16.05;9.55;;;;;;;14.80;100.00;-25483.38;5094212;28;20111;-77
2022/06/23 03:47:36;;;;;;;17.77;9.80;;;;;;;14.83;100.00;-25484.25;5095958;28;20024;-80
2022/06/23 03:50:14;;;;;;;14.52;9.13;;;;;;;14.88;100.00;-25485.72;5093562;28;20031;-80
2022/06/23 03:52:45;;;;;;;14.95;9.68;;;;;;;15.24;100.00;-25495.91;5093551;28;20151;-78
2022/06/23 03:55:24;;;;;;;15.63;10.05;;;;;;;15.36;100.00;-25499.25;5093305;28;20020;-76
2022/06/23 03:57:58;;;;;;;18.67;9.30;;;;;;;15.22;100.00;-25495.31;5090881;28;20024;-78
2022/06/23 04:00:30;;;;;;;15.90;9.10;;;;;;;15.56;100.00;-25504.91;5091665;28;20089;-75
2022/06/23 04:03:18;;;;;;;14.55;8.73;;;;;;;16.09;100.00;-25520.03;5090895;28;20028;-77
2022/06/23 04:06:30;;;;;;;13.98;8.38;;;;;;;16.56;100.00;-25533.09;5091137;28;20368;-76
2022/06/23 04:09:08;;;;;;;13.65;7.85;;;;;;;16.96;100.00;-25544.44;5092250;28;20064;-77
2022/06/23 04:12:07;;;;;;;14.20;7.72;;;;;;;17.32;100.00;-25554.72;5090302;28;20115;-76
2022/06/23 04:15:09;;;;;;;10.55;7.97;;;;;;;17.65;100.00;-25563.84;5089527;28;20181;-77
2022/06/23 04:17:41;;;;;;;12.27;7.07;;;;;;;18.05;100.00;-21608.28;5091549;28;20043;-76
2022/06/23 04:20:19;;;;;;;12.15;7.90;;;;;;;18.04;100.00;-13997.13;5092590;28;20038;-76
2022/06/23 04:23:06;;;;;;;14.40;7.55;;;;;;;18.11;100.00;-7366.59;5091179;28;20028;-75
2022/06/23 04:25:39;;;;;;;12.88;7.30;;;;;;;18.19;100.00;-390.47;5090696;28;20040;-76
2022/06/23 04:28:05;;;;;;;11.40;7.57;;;;;;;18.54;100.00;6939.44;5087104;28;20024;-75
2022/06/23 04:30:38;;;;;;;10.70;7.75;;;;;;;18.82;100.00;15959.69;5090866;28;20028;-75
2022/06/23 04:33:06;;;;;;;9.50;7.15;;;;;;;19.15;100.00;24676.56;5089772;28;20020;-77
2022/06/23 04:35:36;;;;;;;11.93;6.75;;;;;;;19.46;100.00;40147.72;5090320;28;20051;-79
2022/06/23 04:38:09;;;;;;;9.85;6.68;;;;;;;19.45;100.00;51271.38;5090426;28;20111;-75
2022/06/23 04:40:45;;;;;;;10.30;6.63;;;;;;;19.53;100.00;52967.59;5090238;28;20444;-78
2022/06/23 04:43:19;;;;;;;12.07;6.75;;;;;;;20.19;100.00;75070.69;5090276;28;20364;-75
2022/06/23 04:45:54;;;;;;;10.68;6.70;;;;;;;20.58;100.00;100377.88;5089911;28;20474;-74
2022/06/23 04:48:45;;;;;;;10.75;7.20;;;;;;;20.33;100.00;134356.41;5089994;28;20024;-76
2022/06/23 04:51:26;;;;;;;13.27;7.07;;;;;;;19.92;100.00;147732.84;5091559;28;20495;-76
2022/06/23 04:54:00;;;;;;;12.20;7.20;;;;;;;19.77;100.00;147694.41;5090900;28;20020;-78
2022/06/23 04:56:34;;;;;;;10.55;6.97;;;;;;;20.13;100.00;147785.31;5091913;28;20077;-78
2022/06/23 04:59:15;;;;;;;11.18;6.60;;;;;;;20.15;100.00;147789.16;5089971;28;20027;-76
2022/06/23 05:01:44;;;;;;;12.07;7.22;;;;;;;19.73;100.00;147685.38;5089703;28;20039;-76
2022/06/23 05:04:23;;;;;;;10.90;7.47;;;;;;;18.98;100.00;147499.75;5090421;28;20104;-77
2022/06/23 05:06:56;;;;;;;9.88;7.03;;;;;;;19.48;100.00;147622.63;5089765;28;20391;-75
2022/06/23 05:09:32;;;;;;;11.73;6.95;;;;;;;19.98;100.00;147748.19;5092929;28;20491;-76
2022/06/23 05:12:05;;;;;;;12.80;7.00;;;;;;;20.23;100.00;147810.94;5091409;28;20016;-77
2022/06/23 05:14:34;;;;;;;10.73;6.85;;;;;;;20.12;100.00;147782.78;5086792;28;20031;-77
2022/06/23 05:17:13;;;;;;;12.77;7.40;;;;;;;19.87;100.00;147720.00;5091318;28;20127;-77
2022/06/23 05:19:41;;;;;;;11.17;7.43;;;;;;;18.57;100.00;147397.34;5092194;28;20024;-80
2022/06/23 05:22:22;;;;;;;11.30;7.78;;;;;;;17.74;100.00;147191.38;5089083;28;20278;-80
2022/06/23 05:24:49;;;;;;;10.68;7.80;;;;;;;17.86;100.00;115621.13;5091304;28;20039;-81
2022/06/23 05:27:21;;;;;;;12.00;7.85;;;;;;;17.80;100.00;85950.34;5089423;28;20047;-75
2022/06/23 05:29:54;;;;;;;15.60;8.00;;;;;;;17.37;100.00;65234.50;5089478;28;20038;-80
2022/06/23 05:32:26;;;;;;;12.48;8.73;;;;;;;17.53;100.00;44703.28;5090843;28;20031;-78
2022/06/23 05:35:03;;;;;;;14.80;8.75;;;;;;;17.46;100.00;35301.13;5089414;28;20073;-79
2022/06/23 05:37:42;;;;;;;15.25;8.80;;;;;;;17.46;100.00;30946.28;5089502;28;20024;-75
2022/06/23 05:40:29;;;;;;;12.57;8.75;;;;;;;17.83;100.00;28959.13;5089810;28;20031;-77
2022/06/23 05:43:00;;;;;;;13.30;8.50;;;;;;;18.49;100.00;33021.81;5088913;28;20031;-77
2022/06/23 05:45:30;;;;;;;12.93;7.93;;;;;;;19.17;100.00;54959.03;5089994;28;20075;-78
2022/06/23 05:47:57;;;;;;;;;;;;;;;19.24;100.00;97757.16;5090479;28;20123;-79
2022/06/23 05:50:29;;;;;;;15.50;8.57;;;;;;;18.97;100.00;119269.81;5089365;28;19912;-81
2022/06/23 05:53:07;;;;;;;11.80;8.88;;;;;;;18.97;100.00;108990.06;5089735;28;20056;-78
2022/06/23 05:55:44;;;;;;;13.10;8.80;;;;;;;19.06;100.00;106268.13;5089215;28;20047;-78
2022/06/23 05:58:13;;;;;;;13.20;7.90;;;;;;;18.56;100.00;110964.94;5089108;28;20123;-80
2022/06/23 06:00:48;;;;;;;13.65;8.90;;;;;;;18.65;100.00;91522.63;5090623;28;20032;-77
2022/06/23 06:03:32;;;;;;;14.90;8.50;;;;;;;18.47;100.00;86050.13;5091531;28;20048;-78
2022/06/23 06:06:01;;;;;;;13.85;9.35;;;;;;;18.10;100.00;75813.16;5091026;28;20020;-77
2022/06/23 06:09:35;;;;;;;14.13;9.45;;;;;;;18.49;100.00;61307.22;5091338;28;20559;-78
2022/06/23 06:11:23;;;;;;;13.85;8.82;;;;;;;18.63;100.00;66734.94;5090811;28;20063;-80
2022/06/23 06:13:53;;;;;;;13.75;9.02;;;;;;;18.68;100.00;69110.00;5091330;28;20031;-77
2022/06/23 06:16:19;;;;;;;14.57;9.25;;;;;;;18.71;100.00;73519.50;5085606;28;20438;-78
2022/06/23 06:18:46;;;;;;;12.43;9.05;;;;;;;18.80;100.00;74888.91;5089809;28;20024;-81
2022/06/23 06:21:16;;;;;;;12.43;8.73;;;;;;;18.92;100.00;81016.88;5089875;28;20031;-81
2022/06/23 06:24:04;;;;;;;12.45;8.20;;;;;;;18.62;100.00;78936.53;5090763;28;20032;-80
2022/06/23 06:26:37;;;;;;;13.95;8.93;;;;;;;18.44;100.00;67727.69;5088212;28;20131;-75
2022/06/23 06:29:16;;;;;;;16.20;9.63;;;;;;;18.71;100.00;63021.53;5089347;28;20051;-78
2022/06/23 06:31:48;;;;;;;13.48;9.32;;;;;;;18.78;100.00;65737.03;5092126;28;20024;-79
2022/06/23 06:34:19;;;;;;;11.60;8.65;;;;;;;18.91;100.00;69138.88;5093171;28;20468;-80
2022/06/23 06:36:48;;;;;;;13.15;9.13;;;;;;;18.86;100.00;67777.63;5092978;28;20025;-80
2022/06/23 06:39:16;;;;;;;12.77;9.05;;;;;;;18.99;100.00;69487.81;5091753;28;20024;-79
2022/06/23 06:41:47;;;;;;;15.10;8.55;;;;;;;19.18;100.00;74598.75;5093064;28;20043;-78
2022/06/23 06:44:15;;;;;;;13.73;8.82;;;;;;;19.53;100.00;90980.47;5092769;28;20041;-80
2022/06/23 06:46:43;;;;;;;17.17;8.25;;;;;;;20.47;100.00;134387.94;5094156;28;20024;-80
2022/06/23 06:49:19;;;;;;;13.73;8.77;;;;;;;20.77;100.00;147944.22;5095338;28;20032;-81
2022/06/23 06:51:48;;;;;;;12.30;7.95;;;;;;;21.02;100.00;148007.06;5081743;28;20032;-81
2022/06/23 06:54:24;;;;;;;13.57;8.23;;;;;;;20.69;100.00;147925.00;5093467;28;20060;-79
2022/06/23 06:56:56;;;;;;;12.82;8.52;;;;;;;21.36;100.00;148091.59;5094561;28;20032;-79
2022/06/23 06:59:31;;;;;;;13.45;8.85;;;;;;;20.99;100.00;147999.38;5091136;28;20552;-81
2022/06/23 07:02:03;;;;;;;11.80;8.02;;;;;;;21.38;100.00;148095.47;5074331;28;20174;-81
2022/06/23 07:04:43;;;;;;;11.55;8.18;;;;;;;21.07;100.00;148019.84;5088596;28;20024;-78
2022/06/23 07:07:18;;;;;;;12.07;8.00;;;;;;;21.02;100.00;148005.75;5091675;28;20024;-76
2022/06/23 07:09:58;;;;;;;10.43;7.95;;;;;;;21.98;100.00;148246.81;5091964;28;20452;-76
2022/06/23 07:12:27;;;;;;;;;;;;;;;23.10;100.00;148526.63;5093769;28;20131;-78
2022/06/23 07:15:08;;;;;;;14.13;9.10;;;;;;;23.59;100.00;148647.28;5091954;28;20291;-76
2022/06/23 07:18:04;;;;;;;12.27;7.63;;;;;;;24.90;100.00;148976.13;5072222;28;20139;-74
2022/06/23 07:20:48;;;;;;;10.20;7.57;;;;;;;24.88;100.00;148971.00;5082860;28;20058;-78
2022/06/23 07:23:25;;;;;;;11.10;7.85;;;;;;;24.16;100.00;148791.13;5092536;28;20024;-75
2022/06/23 07:26:14;;;;;;;12.10;8.45;;;;;;;24.47;100.00;148866.88;5087760;28;20408;-75
2022/06/23 07:28:46;;;;;;;11.63;7.80;;;;;;;25.57;100.00;149141.97;5091463;28;20059;-76
2022/06/23 07:31:24;;;;;;;14.27;7.75;;;;;;;25.35;100.00;149088.00;5092290;28;20039;-76
2022/06/23 07:33:59;;;;;;;12.55;7.70;;;;;;;24.91;100.00;148977.44;5071035;28;20283;-75
2022/06/23 07:36:31;;;;;;;11.52;8.25;;;;;;;24.94;100.00;148983.84;5071921;28;20025;-76
2022/06/23 07:39:12;;;;;;;11.50;8.05;;;;;;;24.20;100.00;148800.09;5072229;28;20028;-75
2022/06/23 07:41:47;;;;;;;11.95;8.18;;;;;;;25.18;100.00;149044.25;5071151;28;20028;-75
2022/06/23 07:44:26;;;;;;;12.07;8.18;;;;;;;25.59;100.00;149147.13;5092048;28;20035;-75
2022/06/23 07:46:52;;;;;;;9.43;7.78;;;;;;;26.26;100.00;149315.63;5091511;28;20442;-77
2022/06/23 07:49:17;;;;;;;12.18;7.90;;;;;;;26.36;100.00;149340.03;5091320;28;20028;-75
2022/06/23 07:51:43;;;;;;;11.23;7.85;;;;;;;26.41;100.00;149351.63;5092613;28;20396;-76
2022/06/23 07:54:18;;;;;;;12.32;8.07;;;;;;;26.77;100.00;149443.03;5091166;28;20040;-77
2022/06/23 07:56:44;;;;;;;10.60;7.63;;;;;;;27.35;100.00;149587.16;5091804;28;20066;-77
2022/06/23 07:59:15;;;;;;;11.38;8.23;;;;;;;25.90;100.00;149224.25;5092201;28;20427;-81
2022/06/23 08:02:00;;;;;;;12.05;8.05;;;;;;;26.19;100.00;149296.34;5091919;28;20114;-81
2022/06/23 08:04:42;;;;;;;10.10;7.65;;;;;;;26.43;100.00;149358.06;5088598;28;20036;-77
2022/06/23 08:07:10;;;;;;;12.32;8.50;;;;;;;26.96;100.00;149490.59;5071682;28;20029;-77
2022/06/23 08:09:42;;;;;;;12.75;8.55;;;;;;;26.86;100.00;149466.19;5091527;28;20050;-78
2022/06/23 08:17:58;;;;;;;12.52;8.20;;;;;;;28.04;100.00;149760.94;5093545;28;20123;-78
2022/06/23 08:20:25;;;;;;;11.45;7.75;;;;;;;28.86;100.00;149965.75;5092443;28;20047;-82
2022/06/23 08:22:54;;;;;;;13.52;8.43;;;;;;;28.03;100.00;149757.09;5092943;28;20053;-79
2022/06/23 08:25:20;;;;;;;12.90;8.90;;;;;;;26.98;100.00;149495.72;5091389;28;20051;-81
2022/06/23 08:27:47;;;;;;;11.63;8.52;;;;;;;26.86;100.00;149466.19;5092478;28;20119;-80
2022/06/23 08:30:16;;;;;;;15.98;8.85;;;;;;;27.69;100.00;149672.13;5092572;28;20234;-81
2022/06/23 08:32:47;;;;;;;10.70;8.07;;;;;;;28.48;100.00;149870.44;5091652;28;20032;-80
2022/06/23 08:35:31;;;;;;;12.63;9.07;;;;;;;26.33;100.00;149332.31;5092412;28;20020;-80
2022/06/23 08:38:06;;;;;;;13.10;9.25;;;;;;;27.47;100.00;149616.75;5091353;28;20450;-76
2022/06/23 08:40:46;;;;;;;13.73;9.35;;;;;;;27.46;100.00;149615.47;5092441;28;20036;-79
2022/06/23 08:43:28;;;;;;;13.32;10.07;;;;;;;27.27;100.00;149566.50;5092571;28;20075;-80
2022/06/23 08:46:41;;;;;;;11.05;9.32;;;;;;;27.67;100.00;149666.94;5091560;28;20118;-81
2022/06/23 08:49:28;;;;;;;11.32;9.02;;;;;;;28.03;100.00;149757.09;5079118;28;20051;-81
2022/06/23 08:52:36;;;;;;;13.48;9.95;;;;;;;28.13;100.00;149782.84;5092704;28;20126;-82
2022/06/23 08:55:08;;;;;;;15.10;10.65;;;;;;;28.54;100.00;149884.56;5076461;28;20051;-78
2022/06/23 08:57:50;;;;;;;14.30;10.50;;;;;;;28.88;100.00;149970.91;5089636;28;20047;-79
2022/06/23 09:00:23;;;;;;;14.48;9.57;;;;;;;28.90;100.00;149976.09;5079748;28;20036;-77
2022/06/23 09:02:59;;;;;;;14.70;9.95;;;;;;;28.91;100.00;149977.34;5089603;28;20330;-78
2022/06/23 09:05:36;;;;;;;13.50;10.10;;;;;;;28.02;100.00;149754.53;5089550;28;20043;-73
2022/06/23 09:08:28;;;;;;;13.48;8.80;;;;;;;29.00;100.00;150001.81;5089956;28;20384;-77
2022/06/23 09:10:57;;;;;;;14.80;10.38;;;;;;;28.81;100.00;149952.91;5071173;28;20020;-74
2022/06/23 09:13:55;;;;;;;14.85;10.82;;;;;;;28.76;100.00;149941.31;5088715;28;20032;-78
2022/06/23 09:16:48;;;;;;;14.75;9.90;;;;;;;29.79;100.00;150197.75;5037719;28;20075;-76
2022/06/23 09:19:45;;;;;;;14.15;9.75;;;;;;;29.30;100.00;150076.63;5086455;28;20060;-74
2022/06/23 09:22:41;;;;;;;15.77;11.10;;;;;;;28.83;100.00;149958.03;5069549;28;20050;-73
2022/06/23 09:25:16;;;;;;;15.60;10.40;;;;;;;28.58;100.00;149896.22;5069665;28;20028;-76
2022/06/23 09:28:00;;;;;;;16.27;11.68;;;;;;;28.76;100.00;149941.31;5069246;28;20073;-78
2022/06/23 09:31:10;;;;;;;15.52;10.40;;;;;;;28.47;100.00;149867.84;5069933;28;20041;-74
2022/06/23 09:33:47;;;;;;;13.27;10.25;;;;;;;29.11;100.00;150027.59;5081779;28;20447;-79
2022/06/23 09:36:31;;;;;;;13.32;10.93;;;;;;;27.94;100.00;149736.44;5069617;28;20070;-76
2022/06/23 09:39:34;;;;;;;15.65;10.55;;;;;;;28.39;100.00;149848.53;5066703;28;20491;-79
2022/06/23 09:42:35;;;;;;;19.58;11.15;;;;;;;28.09;100.00;149773.84;5069876;28;20115;-76
2022/06/23 09:45:16;;;;;;;14.98;10.68;;;;;;;28.75;100.00;149937.44;5082464;28;20033;-77
2022/06/23 09:48:04;;;;;;;14.52;10.63;;;;;;;29.19;100.00;150048.19;5069178;28;20036;-76
2022/06/23 09:50:38;;;;;;;12.88;10.05;;;;;;;29.38;100.00;150095.91;5069771;28;20147;-79
2022/06/23 09:53:20;;;;;;;16.73;10.52;;;;;;;28.49;100.00;149872.97;5077693;28;20082;-75
2022/06/23 09:55:45;;;;;;;16.80;10.70;;;;;;;27.87;100.00;149718.41;5081699;28;20024;-76
2022/06/23 09:58:12;;;;;;;17.13;10.48;;;;;;;27.91;100.00;149727.47;5090327;28;20031;-76
2022/06/23 10:00:37;;;;;;;13.25;10.20;;;;;;;28.38;100.00;149845.94;5089757;28;20028;-74
2022/06/23 10:03:26;;;;;;;18.75;12.30;;;;;;;28.03;100.00;149758.41;5089266;28;20039;-75
2022/06/23 10:06:07;;;;;;;17.48;11.80;;;;;;;27.71;100.00;149677.25;5095135;28;20137;-76
2022/06/23 10:08:41;;;;;;;14.55;10.15;;;;;;;27.76;100.00;149691.44;5094066;28;20028;-75
2022/06/23 10:11:16;;;;;;;16.27;10.60;;;;;;;28.47;100.00;149867.84;5094036;28;20028;-75
2022/06/23 10:14:06;;;;;;;15.48;11.07;;;;;;;28.21;100.00;149803.44;5077552;28;20073;-75
2022/06/23 10:16:49;;;;;;;16.55;11.32;;;;;;;28.22;100.00;149806.03;5093971;28;20028;-75
2022/06/23 10:19:27;;;;;;;16.58;10.18;;;;;;;28.30;100.00;149826.63;5085691;28;20063;-79
2022/06/23 10:22:17;;;;;;;15.93;9.88;;;;;;;28.86;100.00;149965.75;5087249;28;20488;-78
2022/06/23 10:24:57;;;;;;;17.10;11.07;;;;;;;28.45;100.00;149862.72;5092459;28;20035;-79
2022/06/23 10:27:49;;;;;;;17.02;11.50;;;;;;;28.53;100.00;149883.28;5093740;28;20040;-80
2022/06/23 10:30:18;;;;;;;16.58;8.68;;;;;;;28.88;100.00;149970.91;5093094;28;20124;-81
2022/06/23 10:33:08;;;;;;;15.57;7.78;;;;;;;29.36;100.00;150090.78;5092930;28;20039;-81
2022/06/23 10:35:48;;;;;;;13.93;9.27;;;;;;;28.65;100.00;149914.25;5092731;28;20102;-77
2022/06/23 10:38:28;;;;;;;15.10;8.90;;;;;;;29.16;100.00;150040.47;5091892;28;20028;-76
2022/06/23 10:41:06;;;;;;;15.63;9.30;;;;;;;28.75;100.00;149937.44;5092721;28;20035;-78
2022/06/23 10:43:47;;;;;;;14.25;9.32;;;;;;;28.99;100.00;149999.28;5092355;28;20064;-79
2022/06/23 10:46:48;;;;;;;14.35;8.80;;;;;;;28.99;100.00;149997.94;5093120;28;20020;-79
2022/06/23 10:49:22;;;;;;;14.30;9.23;;;;;;;29.11;100.00;150027.59;5060406;28;20083;-79
2022/06/23 10:52:03;;;;;;;13.27;8.77;;;;;;;28.60;100.00;149901.34;5092454;28;20545;-80
2022/06/23 10:54:39;;;;;;;16.00;8.45;;;;;;;29.40;100.00;150099.78;5092884;28;20032;-80
2022/06/23 10:57:20;;;;;;;13.07;8.48;;;;;;;29.29;100.00;150074.03;5092655;28;20127;-79
2022/06/23 11:00:13;;;;;;;14.45;8.18;;;;;;;29.31;100.00;150079.16;5091663;28;20051;-77
2022/06/23 11:03:20;;;;;;;18.20;9.00;;;;;;;28.87;100.00;149968.34;5092813;28;20086;-79
2022/06/23 11:06:03;;;;;;;14.35;8.77;;;;;;;28.61;100.00;149902.66;5091995;28;20088;-76
2022/06/23 11:08:42;;;;;;;14.32;9.55;;;;;;;28.89;100.00;149972.22;5076074;28;20071;-78
2022/06/23 11:11:26;;;;;;;14.98;10.90;;;;;;;28.65;100.00;149914.25;5093516;28;20020;-78
2022/06/23 11:14:20;;;;;;;15.60;9.55;;;;;;;29.14;100.00;150035.34;5093307;28;20483;-78
2022/06/23 11:17:12;;;;;;;13.05;8.02;;;;;;;29.38;100.00;150095.91;5092137;28;20086;-78
2022/06/23 11:20:01;;;;;;;10.73;7.00;;;;;;;29.43;100.00;150108.81;5102508;27;20024;-77
2022/06/23 11:22:43;;;;;;;12.82;7.70;;;;;;;29.11;100.00;150027.59;5073039;28;20046;-78
2022/06/23 11:25:36;;;;;;;14.85;7.65;;;;;;;28.76;100.00;149941.31;5092182;28;20476;-76
2022/06/23 11:28:05;;;;;;;17.00;9.48;;;;;;;28.18;100.00;149794.44;5092157;28;20021;-77
2022/06/23 11:30:46;;;;;;;18.08;8.30;;;;;;;28.72;100.00;149931.00;5091394;28;20026;-73
2022/06/23 11:33:18;;;;;;;12.60;7.38;;;;;;;29.44;100.00;150111.38;5091317;28;20388;-74
2022/06/23 11:36:34;;;;;;;14.52;9.15;;;;;;;30.05;100.00;150264.81;5090840;28;20377;-75
2022/06/23 11:39:30;;;;;;;15.23;7.25;;;;;;;30.11;100.00;150277.69;5030179;28;20029;-77
2022/06/23 11:41:59;;;;;;;13.27;7.63;;;;;;;30.57;100.00;150393.75;5006383;28;20065;-75
2022/06/23 11:44:59;;;;;;;15.48;7.70;;;;;;;30.11;100.00;150278.94;5013249;28;20033;-75
2022/06/23 11:47:40;;;;;;;11.73;7.18;;;;;;;30.65;100.00;150414.38;5062338;28;20042;-76
2022/06/23 11:50:16;;;;;;;15.02;7.50;;;;;;;30.35;100.00;150338.28;5091085;28;20090;-76
2022/06/23 11:53:01;;;;;;;14.88;6.82;;;;;;;29.56;100.00;150141.03;5091047;28;20075;-75
2022/06/23 11:55:35;;;;;;;14.23;7.20;;;;;;;30.07;100.00;150269.94;5090355;28;20024;-74
2022/06/23 11:58:33;;;;;;;10.75;5.68;;;;;;;30.56;100.00;150392.50;5090992;28;20118;-74
2022/06/23 12:01:13;;;;;;;12.88;6.30;;;;;;;30.55;100.00;150388.63;5090470;28;20047;-76
2022/06/23 12:03:41;;;;;;;12.73;6.78;;;;;;;30.73;100.00;150435.03;5090455;28;20486;-74
2022/06/23 12:06:22;;;;;;;18.95;6.45;;;;;;;30.94;100.00;150486.63;5090987;28;20069;-75
2022/06/23 12:09:15;;;;;;;10.45;6.15;;;;;;;30.61;100.00;150404.09;5090522;28;20031;-76
2022/06/23 12:11:40;;;;;;;11.48;6.30;;;;;;;30.71;100.00;150429.84;5091570;28;20073;-81
2022/06/23 12:14:08;;;;;;;12.75;6.72;;;;;;;30.87;100.00;150469.81;5090880;28;20024;-75